Time;durP1;ratioP1;P1;durP2;ratioP2;P2;SDS_P1;SDS_P2;PMS_P1;PMS_P2;Temp;Humidity;BMP_temperature;BMP_pressure;BME280_temperature;BME280_humidity;BME280_pressure;Samples;Min_cycle;Max_cycle;Signal;HPM_P1;HPM_P2
2021/07/09 00:01:53;;;;;;;13.00;6.32;;;17.30;99.90;;;;;;5011689;28;20136;-89
2021/07/09 00:04:21;;;;;;;12.70;5.78;;;17.30;99.90;;;;;;5011370;28;20034;-89
2021/07/09 00:06:47;;;;;;;15.82;6.78;;;17.30;99.90;;;;;;4979903;28;20020;-90
2021/07/09 00:09:13;;;;;;;9.68;6.03;;;17.30;99.90;;;;;;5011327;28;20386;-92
2021/07/09 00:11:41;;;;;;;12.40;5.80;;;17.20;99.90;;;;;;5009971;28;20029;-89
2021/07/09 00:14:08;;;;;;;12.98;5.60;;;17.20;99.90;;;;;;5010843;28;20023;-88
2021/07/09 00:16:35;;;;;;;12.00;6.28;;;17.20;99.90;;;;;;4993200;28;20125;-89
2021/07/09 00:19:03;;;;;;;11.13;5.78;;;17.20;99.90;;;;;;5010840;28;20045;-89
2021/07/09 00:21:33;;;;;;;11.40;5.55;;;17.20;99.90;;;;;;5010699;28;20029;-89
2021/07/09 00:24:00;;;;;;;12.20;5.95;;;17.10;99.90;;;;;;5004344;28;20506;-89
2021/07/09 00:26:27;;;;;;;10.13;5.63;;;17.10;99.90;;;;;;5005073;28;20506;-94
2021/07/09 00:28:53;;;;;;;11.15;5.93;;;17.10;99.90;;;;;;4993441;28;20037;-89
2021/07/09 00:31:19;;;;;;;12.38;6.07;;;17.10;99.90;;;;;;4990385;28;20506;-89
2021/07/09 00:33:45;;;;;;;13.70;5.60;;;17.00;99.90;;;;;;5007921;28;20032;-89
2021/07/09 00:36:11;;;;;;;11.73;5.72;;;17.00;99.90;;;;;;5010991;28;20463;-89
2021/07/09 00:38:36;;;;;;;10.15;5.38;;;17.00;99.90;;;;;;4993252;28;20101;-89
2021/07/09 00:41:02;;;;;;;14.82;6.15;;;16.90;99.90;;;;;;5011097;28;20371;-89
2021/07/09 00:43:28;;;;;;;10.40;5.35;;;16.90;99.90;;;;;;5010841;28;20033;-89
2021/07/09 00:45:54;;;;;;;10.55;5.47;;;16.90;99.90;;;;;;5010860;28;20478;-95
2021/07/09 00:48:19;;;;;;;11.40;5.78;;;16.90;99.90;;;;;;5011140;28;20097;-89
2021/07/09 00:50:45;;;;;;;12.43;5.40;;;16.90;99.90;;;;;;5010649;28;20156;-89
2021/07/09 00:53:11;;;;;;;11.52;5.55;;;16.80;99.90;;;;;;5010672;28;20050;-89
2021/07/09 00:55:37;;;;;;;10.60;5.90;;;16.80;99.90;;;;;;4992758;28;20036;-90
2021/07/09 00:58:03;;;;;;;11.95;5.65;;;16.80;99.90;;;;;;5010363;28;20052;-89
2021/07/09 01:00:30;;;;;;;12.90;5.65;;;16.70;99.90;;;;;;5010267;28;20018;-89
2021/07/09 01:02:56;;;;;;;11.02;5.53;;;16.80;99.90;;;;;;5010091;28;20046;-89
2021/07/09 01:05:22;;;;;;;12.90;5.88;;;16.70;99.90;;;;;;5010351;28;20494;-89
2021/07/09 01:07:48;;;;;;;10.25;5.55;;;16.60;99.90;;;;;;4992763;28;20022;-89
2021/07/09 01:10:17;;;;;;;11.57;5.28;;;16.60;99.90;;;;;;4989354;28;20022;-89
2021/07/09 01:12:44;;;;;;;11.02;5.20;;;16.50;99.90;;;;;;5005996;28;20057;-89
2021/07/09 01:15:13;;;;;;;10.27;5.35;;;16.50;99.90;;;;;;4992965;28;20033;-89
2021/07/09 01:17:40;;;;;;;12.18;5.45;;;16.50;99.90;;;;;;5010821;28;20033;-90
2021/07/09 01:20:08;;;;;;;11.15;5.90;;;16.50;99.90;;;;;;4992937;28;20025;-89
2021/07/09 01:22:37;;;;;;;10.35;5.70;;;16.40;99.90;;;;;;5012183;28;20494;-89
2021/07/09 01:25:08;;;;;;;14.95;6.97;;;16.40;99.90;;;;;;4996736;28;20439;-89
2021/07/09 01:27:35;;;;;;;11.38;5.47;;;16.40;99.90;;;;;;5014465;28;20084;-89
2021/07/09 01:30:04;;;;;;;14.82;6.47;;;16.30;99.90;;;;;;5010361;28;20079;-89
2021/07/09 01:32:29;;;;;;;12.45;5.97;;;16.30;99.90;;;;;;5014213;28;20028;-89
2021/07/09 01:34:55;;;;;;;13.93;6.38;;;16.30;99.90;;;;;;5014369;28;20108;-89
2021/07/09 01:37:21;;;;;;;13.38;6.28;;;16.30;99.90;;;;;;4996619;28;20637;-89
2021/07/09 01:39:49;;;;;;;11.00;6.35;;;16.30;99.90;;;;;;5014232;28;20210;-90
2021/07/09 01:42:14;;;;;;;12.02;6.50;;;16.30;99.90;;;;;;4996395;28;20034;-89
2021/07/09 01:44:42;;;;;;;11.48;5.88;;;16.30;99.90;;;;;;5014430;28;20367;-89
2021/07/09 01:47:08;;;;;;;12.45;6.22;;;16.30;99.90;;;;;;4994168;28;20033;-89
2021/07/09 01:50:07;;;;;;;11.88;6.05;;;16.20;99.90;;;;;;5014215;28;20022;-90
2021/07/09 01:52:33;;;;;;;12.02;5.95;;;16.20;99.90;;;;;;4960867;28;20522;-89
2021/07/09 01:54:59;;;;;;;14.00;5.88;;;16.20;99.90;;;;;;5004057;28;20026;-90
2021/07/09 01:57:26;;;;;;;11.55;5.88;;;16.20;99.90;;;;;;5013911;28;20057;-89
2021/07/09 01:59:52;;;;;;;10.73;6.30;;;16.20;99.90;;;;;;5013542;28;20108;-89
2021/07/09 02:02:18;;;;;;;15.57;6.00;;;16.20;99.90;;;;;;5013575;28;20030;-89
2021/07/09 02:04:49;;;;;;;12.27;6.18;;;16.20;99.90;;;;;;5013630;28;20022;-89
2021/07/09 02:07:16;;;;;;;10.50;6.03;;;16.30;99.90;;;;;;5014074;28;20053;-89
2021/07/09 02:09:43;;;;;;;12.80;6.65;;;16.20;99.90;;;;;;4996185;28;20431;-90
2021/07/09 02:12:10;;;;;;;9.32;5.07;;;16.20;99.90;;;;;;5014017;28;20038;-90
2021/07/09 02:14:35;;;;;;;11.52;5.95;;;16.20;99.90;;;;;;4996354;28;20017;-90
2021/07/09 02:17:04;;;;;;;12.65;5.80;;;16.20;99.90;;;;;;4996206;28;20040;-89
2021/07/09 02:19:29;;;;;;;13.85;6.35;;;16.30;99.90;;;;;;4999637;28;20010;-89
2021/07/09 02:22:04;;;;;;;14.55;6.35;;;16.20;99.90;;;;;;5013575;28;20382;-89
2021/07/09 02:24:32;;;;;;;11.82;6.20;;;16.20;99.90;;;;;;5013081;28;20022;-90
2021/07/09 02:26:59;;;;;;;11.65;5.53;;;16.20;99.90;;;;;;4995563;28;20061;-89
2021/07/09 02:29:25;;;;;;;11.15;5.63;;;16.20;99.90;;;;;;5013004;28;20109;-90
2021/07/09 02:31:51;;;;;;;11.60;6.70;;;16.20;99.90;;;;;;5012830;28;20026;-89
2021/07/09 02:34:17;;;;;;;15.38;7.18;;;16.20;99.90;;;;;;5010683;28;20034;-89
2021/07/09 02:36:43;;;;;;;14.63;6.20;;;16.30;99.90;;;;;;4995154;28;20113;-89
2021/07/09 02:39:11;;;;;;;11.98;6.45;;;16.30;99.90;;;;;;4991708;28;20018;-90
2021/07/09 02:41:37;;;;;;;12.00;5.53;;;16.40;99.90;;;;;;5010057;28;20026;-89
2021/07/09 02:44:03;;;;;;;15.95;6.50;;;16.40;99.90;;;;;;5012592;28;20077;-89
2021/07/09 02:46:29;;;;;;;11.77;6.82;;;16.50;99.90;;;;;;5012750;28;20025;-89
2021/07/09 02:48:55;;;;;;;12.45;6.22;;;16.50;99.90;;;;;;4995460;28;20034;-91
2021/07/09 02:51:21;;;;;;;12.00;6.03;;;16.50;99.90;;;;;;5012458;28;20022;-89
2021/07/09 02:53:46;;;;;;;12.55;6.22;;;16.50;99.90;;;;;;5005759;28;20054;-89
2021/07/09 02:56:12;;;;;;;12.48;6.25;;;16.60;99.90;;;;;;4993290;28;20026;-89
2021/07/09 02:58:38;;;;;;;13.75;7.05;;;16.60;99.90;;;;;;5011354;28;20674;-89
2021/07/09 03:01:04;;;;;;;17.17;6.70;;;16.50;99.90;;;;;;5011393;28;20032;-90
2021/07/09 03:03:30;;;;;;;10.65;6.65;;;16.60;99.90;;;;;;5011232;28;20495;-89
2021/07/09 03:05:55;;;;;;;13.80;6.18;;;16.50;99.90;;;;;;5012598;28;20044;-89
2021/07/09 03:08:22;;;;;;;14.13;6.13;;;16.50;99.90;;;;;;5012688;28;20545;-89
2021/07/09 03:10:48;;;;;;;13.73;6.55;;;16.50;99.90;;;;;;5011784;28;20080;-89
2021/07/09 03:13:14;;;;;;;11.68;5.80;;;16.50;99.90;;;;;;5010803;28;20026;-89
2021/07/09 03:15:39;;;;;;;11.73;5.95;;;16.50;99.90;;;;;;5010692;28;20097;-89
2021/07/09 03:18:05;;;;;;;13.48;6.07;;;16.50;99.90;;;;;;5010619;28;20026;-89
2021/07/09 03:20:31;;;;;;;13.07;6.53;;;16.50;99.90;;;;;;5010382;28;20068;-90
2021/07/09 03:22:57;;;;;;;13.20;6.20;;;16.60;99.90;;;;;;4997725;28;20411;-89
2021/07/09 03:25:22;;;;;;;12.93;5.68;;;16.60;99.90;;;;;;4993211;28;20081;-89
2021/07/09 03:27:48;;;;;;;12.02;6.03;;;16.60;99.90;;;;;;4998195;28;20021;-89
2021/07/09 03:30:14;;;;;;;11.63;6.25;;;16.70;99.90;;;;;;5007693;28;20620;-89
2021/07/09 03:32:40;;;;;;;10.60;5.75;;;16.70;99.90;;;;;;4981430;28;20088;-89
2021/07/09 03:35:07;;;;;;;10.68;5.13;;;16.70;99.90;;;;;;4994055;28;20022;-90
2021/07/09 03:37:33;;;;;;;12.60;5.90;;;16.70;99.90;;;;;;5002174;28;20034;-89
2021/07/09 03:39:59;;;;;;;10.70;5.95;;;16.80;99.90;;;;;;4992690;28;20018;-89
2021/07/09 03:42:25;;;;;;;9.30;4.85;;;16.70;99.90;;;;;;4994221;28;20045;-89
2021/07/09 03:44:51;;;;;;;13.85;6.05;;;16.80;99.90;;;;;;5011746;28;20054;-89
2021/07/09 03:47:16;;;;;;;11.50;5.53;;;16.80;99.90;;;;;;5011600;28;20069;-88
2021/07/09 03:49:42;;;;;;;9.57;5.10;;;16.80;99.90;;;;;;5011844;28;20018;-89
2021/07/09 03:52:08;;;;;;;11.15;5.57;;;16.80;99.90;;;;;;5009497;28;20506;-89
2021/07/09 03:54:34;;;;;;;10.68;5.22;;;16.80;99.90;;;;;;4999542;28;20030;-89
2021/07/09 03:57:01;;;;;;;10.43;5.30;;;16.80;99.90;;;;;;4997665;28;20088;-89
2021/07/09 03:59:26;;;;;;;10.73;5.60;;;16.80;99.90;;;;;;4995830;28;20532;-89
2021/07/09 04:01:52;;;;;;;13.90;4.78;;;16.90;99.90;;;;;;5009760;28;20117;-89
2021/07/09 04:04:18;;;;;;;12.63;5.28;;;16.90;99.90;;;;;;5011131;28;20105;-89
2021/07/09 04:06:43;;;;;;;8.63;4.90;;;16.90;99.90;;;;;;4993236;28;20022;-89
2021/07/09 04:09:09;;;;;;;8.65;4.60;;;16.90;99.90;;;;;;4993422;28;20022;-90
2021/07/09 04:11:37;;;;;;;10.48;4.88;;;16.90;99.90;;;;;;5011252;28;20022;-89
2021/07/09 04:14:03;;;;;;;10.80;4.90;;;16.90;99.90;;;;;;5011383;28;20084;-90
2021/07/09 04:16:29;;;;;;;8.52;4.53;;;17.00;99.90;;;;;;4993536;28;20029;-89
2021/07/09 04:18:54;;;;;;;8.63;4.65;;;17.00;99.90;;;;;;5011357;28;20034;-95
2021/07/09 04:21:20;;;;;;;9.02;4.68;;;16.90;99.90;;;;;;5011074;28;20025;-89
2021/07/09 04:23:46;;;;;;;10.32;4.72;;;17.00;99.90;;;;;;4993179;28;20042;-89
2021/07/09 04:26:11;;;;;;;8.57;4.32;;;17.00;99.90;;;;;;5010829;28;20018;-89
2021/07/09 04:28:37;;;;;;;9.65;4.93;;;17.00;99.90;;;;;;5006062;28;20394;-89
2021/07/09 04:31:03;;;;;;;11.60;4.63;;;17.10;99.90;;;;;;4991425;28;20029;-90
2021/07/09 04:33:29;;;;;;;11.10;4.45;;;17.00;99.90;;;;;;4994791;28;20109;-89
2021/07/09 04:35:54;;;;;;;10.93;4.40;;;17.00;99.90;;;;;;4997240;28;20030;-89
2021/07/09 04:38:20;;;;;;;9.85;4.88;;;17.00;99.90;;;;;;5006423;28;20026;-89
2021/07/09 04:40:46;;;;;;;7.97;4.60;;;17.00;99.90;;;;;;5001847;28;20037;-89
2021/07/09 04:43:12;;;;;;;9.35;4.50;;;17.00;99.90;;;;;;5010539;28;20053;-89
2021/07/09 04:45:38;;;;;;;11.65;4.93;;;17.10;99.90;;;;;;5000759;28;20375;-89
2021/07/09 04:48:05;;;;;;;9.70;4.57;;;17.10;99.90;;;;;;4991547;28;20034;-91
2021/07/09 04:50:31;;;;;;;8.13;4.53;;;17.10;99.90;;;;;;5003797;28;20018;-89
2021/07/09 04:52:58;;;;;;;7.38;4.05;;;17.10;99.90;;;;;;5003893;28;20092;-89
2021/07/09 04:55:24;;;;;;;9.27;4.53;;;17.10;99.90;;;;;;5010564;28;20022;-89
2021/07/09 04:57:50;;;;;;;9.23;5.20;;;17.10;99.90;;;;;;5008289;28;20518;-89
2021/07/09 05:00:16;;;;;;;7.72;4.32;;;17.10;99.90;;;;;;5009883;28;20072;-91
2021/07/09 05:02:42;;;;;;;12.77;5.15;;;17.20;99.90;;;;;;5009501;28;20058;-89
2021/07/09 05:05:13;;;;;;;9.75;4.32;;;17.20;99.90;;;;;;5009803;28;20281;-89
2021/07/09 05:07:39;;;;;;;10.70;4.32;;;17.10;99.90;;;;;;5010012;28;20509;-89
2021/07/09 05:10:06;;;;;;;8.30;4.68;;;17.20;99.90;;;;;;5010379;28;20056;-93
2021/07/09 05:12:32;;;;;;;11.57;4.68;;;17.20;99.90;;;;;;5010445;28;20382;-89
2021/07/09 05:14:58;;;;;;;10.82;4.35;;;17.20;99.90;;;;;;5010475;28;20022;-89
2021/07/09 05:17:23;;;;;;;10.30;4.68;;;17.20;99.90;;;;;;4996448;28;20033;-89
2021/07/09 05:19:52;;;;;;;7.63;3.90;;;17.20;99.90;;;;;;5010581;28;20041;-89
2021/07/09 05:22:22;;;;;;;8.00;4.60;;;17.30;99.90;;;;;;5008790;28;20382;-89
2021/07/09 05:24:53;;;;;;;7.78;4.03;;;17.30;99.90;;;;;;5010492;28;20529;-89
2021/07/09 05:27:19;;;;;;;8.50;4.40;;;17.30;99.90;;;;;;4992936;28;20021;-89
2021/07/09 05:29:44;;;;;;;6.55;3.92;;;17.40;99.90;;;;;;5009630;28;20113;-88
2021/07/09 05:32:10;;;;;;;11.45;4.53;;;17.40;99.90;;;;;;5007513;28;20595;-89
2021/07/09 05:34:36;;;;;;;8.55;4.35;;;17.40;99.90;;;;;;5003133;28;20058;-89
2021/07/09 05:37:03;;;;;;;8.43;4.00;;;17.50;99.90;;;;;;5009802;28;20030;-92
2021/07/09 05:39:28;;;;;;;7.57;4.30;;;17.50;99.90;;;;;;4996145;28;20434;-89
2021/07/09 05:41:54;;;;;;;7.18;3.92;;;17.50;99.90;;;;;;5007222;28;20022;-89
2021/07/09 05:44:20;;;;;;;9.93;3.80;;;17.50;99.90;;;;;;5004847;28;20152;-88
2021/07/09 05:46:50;;;;;;;7.85;4.03;;;17.50;99.90;;;;;;5008388;28;20026;-89
2021/07/09 05:49:15;;;;;;;7.30;3.58;;;17.50;99.90;;;;;;5008278;28;20030;-94
2021/07/09 05:51:41;;;;;;;8.45;3.95;;;17.60;99.90;;;;;;4990692;28;20517;-89
2021/07/09 05:54:07;;;;;;;8.05;3.80;;;17.60;99.90;;;;;;5001608;28;20104;-89
2021/07/09 05:56:32;;;;;;;10.18;4.38;;;17.70;99.90;;;;;;5005094;28;20422;-89
2021/07/09 05:58:59;;;;;;;6.97;3.55;;;17.70;99.90;;;;;;4996450;28;20046;-88
2021/07/09 06:01:25;;;;;;;6.72;3.85;;;17.80;99.90;;;;;;5006111;28;20031;-90
2021/07/09 06:03:50;;;;;;;8.23;3.60;;;17.80;99.90;;;;;;5005106;28;20044;-89
2021/07/09 06:06:16;;;;;;;6.10;3.65;;;17.90;99.90;;;;;;5006117;28;20097;-89
2021/07/09 06:08:42;;;;;;;7.65;4.22;;;18.00;99.90;;;;;;4989223;28;20026;-89
2021/07/09 06:11:08;;;;;;;7.55;3.60;;;18.10;99.90;;;;;;5004701;28;20026;-89
2021/07/09 06:13:34;;;;;;;7.88;3.67;;;18.20;99.90;;;;;;4995227;28;20026;-89
2021/07/09 06:15:59;;;;;;;6.90;3.50;;;18.20;99.90;;;;;;5002592;28;20092;-89
2021/07/09 06:18:25;;;;;;;6.32;3.17;;;18.40;99.90;;;;;;4996008;28;20493;-89
2021/07/09 06:20:51;;;;;;;7.30;3.47;;;18.40;99.90;;;;;;5007139;28;20367;-89
2021/07/09 06:23:17;;;;;;;10.02;3.55;;;18.50;99.90;;;;;;5004219;28;20026;-90
2021/07/09 06:25:42;;;;;;;5.22;2.97;;;18.50;99.90;;;;;;4995509;28;20028;-90
2021/07/09 06:28:08;;;;;;;6.47;3.13;;;18.60;99.90;;;;;;5014557;28;20022;-90
2021/07/09 06:30:34;;;;;;;7.28;3.30;;;18.70;99.90;;;;;;5014977;28;20037;-90
2021/07/09 06:33:00;;;;;;;4.88;3.13;;;18.70;99.90;;;;;;4981754;28;20494;-89
2021/07/09 06:35:28;;;;;;;5.95;3.10;;;18.80;99.90;;;;;;5015328;28;20061;-89
2021/07/09 06:37:58;;;;;;;6.93;3.13;;;18.80;99.90;;;;;;5014448;28;20022;-89
2021/07/09 06:40:43;;;;;;;8.02;3.53;;;18.90;99.90;;;;;;5001763;28;20035;-89
2021/07/09 06:43:11;;;;;;;5.03;3.20;;;19.00;99.90;;;;;;5014175;28;20647;-89
2021/07/09 06:45:43;;;;;;;6.30;2.85;;;19.10;99.90;;;;;;4998068;28;20386;-89
2021/07/09 06:48:09;;;;;;;7.20;3.70;;;19.20;99.90;;;;;;5014509;28;20101;-89
2021/07/09 06:50:40;;;;;;;6.30;3.88;;;19.30;99.90;;;;;;5014411;28;20058;-90
2021/07/09 06:53:06;;;;;;;6.57;3.35;;;19.30;99.90;;;;;;4998902;28;20255;-89
2021/07/09 06:55:31;;;;;;;5.78;3.35;;;19.30;99.90;;;;;;5011487;28;20111;-90
2021/07/09 06:57:59;;;;;;;10.55;3.03;;;19.40;99.90;;;;;;5017416;28;20101;-90
2021/07/09 07:00:26;;;;;;;8.00;2.95;;;19.30;99.90;;;;;;4988773;28;20489;-90
2021/07/09 07:02:52;;;;;;;9.85;2.97;;;19.30;99.90;;;;;;5007130;28;20044;-90
2021/07/09 07:05:18;;;;;;;4.63;3.05;;;19.40;99.90;;;;;;5018785;28;20548;-90
2021/07/09 07:07:44;;;;;;;11.35;3.47;;;19.40;99.90;;;;;;5014360;28;20041;-90
2021/07/09 07:10:12;;;;;;;8.13;3.72;;;19.40;99.90;;;;;;5014653;28;20390;-90
2021/07/09 07:12:38;;;;;;;7.55;3.55;;;19.50;99.90;;;;;;5012343;28;20486;-89
2021/07/09 07:15:07;;;;;;;10.25;4.20;;;19.30;99.90;;;;;;4994258;28;20048;-90
2021/07/09 07:17:33;;;;;;;7.13;3.80;;;19.30;99.90;;;;;;5013883;28;20351;-89
2021/07/09 07:19:59;;;;;;;8.45;4.35;;;19.10;99.90;;;;;;5011923;28;20398;-90
2021/07/09 07:22:25;;;;;;;8.68;3.95;;;19.00;99.90;;;;;;5014651;28;20234;-90
2021/07/09 07:24:52;;;;;;;8.73;3.50;;;19.00;99.90;;;;;;5014370;28;20050;-89
2021/07/09 07:27:23;;;;;;;6.18;3.83;;;18.90;99.90;;;;;;5013285;28;20491;-89
2021/07/09 07:29:49;;;;;;;7.07;3.30;;;18.70;99.90;;;;;;5017720;28;20116;-89
2021/07/09 07:32:16;;;;;;;8.30;3.30;;;18.60;99.90;;;;;;4997727;28;20511;-90
2021/07/09 07:34:42;;;;;;;6.75;3.38;;;18.70;99.90;;;;;;5002987;28;20049;-89
2021/07/09 07:37:08;;;;;;;6.70;3.20;;;18.80;99.90;;;;;;5014550;28;20033;-89
2021/07/09 07:39:35;;;;;;;8.15;3.70;;;18.90;99.90;;;;;;5020799;28;20014;-89
2021/07/09 07:42:02;;;;;;;5.82;3.20;;;18.90;99.90;;;;;;5032200;28;20488;-89
2021/07/09 07:44:28;;;;;;;7.07;3.45;;;18.90;99.90;;;;;;5033490;28;20237;-88
2021/07/09 07:46:54;;;;;;;8.45;3.10;;;18.90;99.90;;;;;;5031183;28;20232;-88
2021/07/09 07:49:22;;;;;;;5.80;3.00;;;18.90;99.90;;;;;;5005510;28;20117;-89
2021/07/09 07:51:50;;;;;;;7.70;3.17;;;19.00;99.90;;;;;;5006711;28;20037;-89
2021/07/09 07:54:16;;;;;;;8.85;3.58;;;19.00;99.90;;;;;;5029292;28;20022;-89
2021/07/09 07:56:43;;;;;;;6.82;3.63;;;18.90;99.90;;;;;;5025399;28;20025;-88
2021/07/09 07:59:09;;;;;;;10.43;3.45;;;18.70;99.90;;;;;;5025389;28;20065;-88
2021/07/09 08:01:34;;;;;;;8.27;3.20;;;18.40;99.90;;;;;;5023517;28;20517;-88
2021/07/09 08:04:00;;;;;;;6.53;3.38;;;18.40;99.90;;;;;;5022916;28;20038;-89
2021/07/09 08:06:26;;;;;;;9.40;3.35;;;18.30;99.90;;;;;;5021676;28;20076;-88
2021/07/09 08:08:54;;;;;;;8.30;3.50;;;18.10;99.90;;;;;;5006399;28;20061;-89
2021/07/09 08:11:21;;;;;;;6.28;2.95;;;18.20;99.90;;;;;;5013537;28;20037;-89
2021/07/09 08:13:47;;;;;;;6.13;3.35;;;18.30;99.90;;;;;;5001726;28;20021;-89
2021/07/09 08:16:13;;;;;;;6.03;2.92;;;18.30;99.90;;;;;;4997788;28;20030;-89
2021/07/09 08:18:39;;;;;;;7.38;3.20;;;18.30;99.90;;;;;;5012449;28;20153;-88
2021/07/09 08:21:04;;;;;;;6.07;3.30;;;18.30;99.90;;;;;;5013101;28;20038;-88
2021/07/09 08:23:30;;;;;;;7.68;3.00;;;18.30;99.90;;;;;;5007502;28;20033;-88
2021/07/09 08:25:57;;;;;;;6.35;3.20;;;18.30;99.90;;;;;;5001382;28;20018;-89
2021/07/09 08:28:27;;;;;;;8.63;3.40;;;18.40;99.90;;;;;;4994464;28;20049;-88
2021/07/09 08:30:52;;;;;;;8.18;3.20;;;18.40;99.90;;;;;;5011617;28;20084;-89
2021/07/09 08:33:18;;;;;;;8.27;3.35;;;18.40;99.90;;;;;;5011075;28;20030;-89
2021/07/09 08:35:44;;;;;;;6.63;3.17;;;18.50;99.90;;;;;;5011281;28;20029;-89
2021/07/09 08:38:10;;;;;;;6.47;2.80;;;18.50;99.90;;;;;;5008591;28;20029;-89
2021/07/09 08:40:36;;;;;;;6.28;3.17;;;18.40;99.90;;;;;;5011270;28;20053;-88
2021/07/09 08:43:03;;;;;;;7.22;3.25;;;18.50;99.90;;;;;;4995968;28;20084;-92
2021/07/09 08:45:29;;;;;;;7.45;3.30;;;18.30;99.90;;;;;;5009936;28;20124;-89
2021/07/09 08:47:56;;;;;;;4.72;2.90;;;18.30;99.90;;;;;;5015947;28;20137;-88
2021/07/09 08:50:22;;;;;;;5.63;2.95;;;18.20;99.90;;;;;;4993069;28;20073;-88
2021/07/09 08:52:47;;;;;;;6.32;3.20;;;18.10;99.90;;;;;;5011816;28;20026;-89
2021/07/09 08:55:14;;;;;;;5.15;3.20;;;18.10;99.90;;;;;;4992918;28;20014;-88
2021/07/09 08:57:44;;;;;;;6.55;3.40;;;17.80;99.90;;;;;;5009265;28;20029;-88
2021/07/09 09:00:33;;;;;;;9.10;3.42;;;17.80;99.90;;;;;;5010249;28;20299;-88
2021/07/09 09:02:59;;;;;;;7.82;3.45;;;17.80;99.90;;;;;;5000885;28;20119;-88
2021/07/09 09:05:29;;;;;;;4.82;2.90;;;17.90;99.90;;;;;;4989413;28;20049;-88
2021/07/09 09:07:58;;;;;;;4.82;3.53;;;17.90;99.90;;;;;;5001475;28;20135;-88
2021/07/09 09:10:35;;;;;;;8.13;3.60;;;17.90;99.90;;;;;;4992572;28;20026;-88
2021/07/09 09:13:15;;;;;;;5.85;3.63;;;17.90;99.90;;;;;;5010315;28;20027;-88
2021/07/09 09:15:44;;;;;;;4.32;2.90;;;17.90;99.90;;;;;;4993812;28;20470;-88
2021/07/09 09:18:20;;;;;;;6.32;3.67;;;17.90;99.90;;;;;;5010985;28;20069;-89
2021/07/09 09:21:01;;;;;;;4.95;3.17;;;17.90;99.90;;;;;;5011617;28;20033;-89
2021/07/09 09:23:29;;;;;;;5.88;2.92;;;17.90;99.90;;;;;;4990644;28;20100;-89
2021/07/09 09:25:56;;;;;;;3.85;2.88;;;17.90;99.90;;;;;;4996580;28;20052;-89
2021/07/09 09:28:22;;;;;;;4.68;3.08;;;17.90;99.90;;;;;;4991500;28;20030;-90
2021/07/09 09:30:55;;;;;;;7.45;3.05;;;17.90;99.90;;;;;;5010273;28;20085;-89
2021/07/09 09:33:22;;;;;;;9.45;3.58;;;17.90;99.90;;;;;;5009715;28;20022;-89
2021/07/09 09:35:56;;;;;;;4.93;3.42;;;17.90;99.90;;;;;;5011657;28;20014;-89
2021/07/09 09:38:29;;;;;;;7.47;3.63;;;17.90;99.90;;;;;;4997416;28;20029;-89
2021/07/09 09:40:57;;;;;;;5.88;3.95;;;17.90;99.90;;;;;;5010357;28;20077;-89
2021/07/09 09:43:27;;;;;;;5.15;3.65;;;17.90;99.90;;;;;;5012776;28;20371;-89
2021/07/09 09:46:01;;;;;;;6.70;4.00;;;18.00;99.90;;;;;;5014057;28;20022;-89
2021/07/09 09:48:38;;;;;;;5.32;3.28;;;18.10;99.90;;;;;;4997439;28;20045;-89
2021/07/09 09:51:23;;;;;;;7.28;3.38;;;18.20;99.90;;;;;;5014088;28;20026;-89
2021/07/09 09:53:58;;;;;;;6.13;3.58;;;18.20;99.90;;;;;;5007160;28;20513;-89
2021/07/09 09:56:40;;;;;;;4.95;3.33;;;18.30;99.90;;;;;;5008075;28;20030;-89
2021/07/09 09:59:23;;;;;;;7.47;3.20;;;18.40;99.90;;;;;;5014262;28;20057;-89
2021/07/09 10:02:05;;;;;;;5.30;3.28;;;18.60;99.90;;;;;;5014027;28;20093;-90
2021/07/09 10:04:33;;;;;;;5.63;2.90;;;18.70;99.90;;;;;;5015201;28;20033;-89
2021/07/09 10:07:00;;;;;;;6.95;2.80;;;18.90;99.90;;;;;;5014022;28;20029;-89
2021/07/09 10:09:28;;;;;;;4.97;3.10;;;19.10;99.90;;;;;;5015156;28;20105;-89
2021/07/09 10:11:55;;;;;;;3.95;3.05;;;19.20;99.90;;;;;;5015052;28;20245;-90
2021/07/09 10:14:23;;;;;;;5.97;3.22;;;19.30;99.90;;;;;;4997012;28;20371;-89
2021/07/09 10:16:51;;;;;;;4.65;3.22;;;19.50;99.90;;;;;;5013903;28;20270;-89
2021/07/09 10:19:28;;;;;;;6.88;3.20;;;19.70;99.90;;;;;;5013108;28;20105;-88
2021/07/09 10:21:54;;;;;;;5.55;3.13;;;19.90;99.90;;;;;;4995792;28;20493;-89
2021/07/09 10:24:20;;;;;;;5.85;3.50;;;20.10;99.90;;;;;;4996317;28;20117;-89
2021/07/09 10:26:57;;;;;;;5.60;2.80;;;20.10;99.90;;;;;;4999001;28;20049;-89
2021/07/09 10:29:26;;;;;;;9.82;4.82;;;20.30;99.90;;;;;;5009298;28;20438;-89
2021/07/09 10:31:53;;;;;;;5.03;3.30;;;20.50;99.90;;;;;;5013119;28;20030;-89
2021/07/09 10:34:23;;;;;;;7.90;5.05;;;20.50;99.90;;;;;;5012954;28;20109;-89
2021/07/09 10:37:08;;;;;;;3.30;2.30;;;20.80;99.90;;;;;;5012446;28;20022;-89
2021/07/09 10:39:35;;;;;;;4.28;2.40;;;20.90;99.90;;;;;;5012667;28;20025;-89
2021/07/09 10:42:42;;;;;;;5.47;2.78;;;21.00;99.90;;;;;;5012540;28;20021;-89
2021/07/09 10:45:11;;;;;;;2.55;1.77;;;21.30;99.90;;;;;;4995308;28;20390;-88
2021/07/09 10:47:38;;;;;;;3.35;2.10;;;21.60;99.90;;;;;;5013032;28;20021;-88
2021/07/09 10:50:12;;;;;;;3.17;2.22;;;21.90;99.90;;;;;;5012978;28;20021;-89
2021/07/09 10:52:44;;;;;;;;;;;22.20;99.90;;;;;;5013971;28;20022;-89
2021/07/09 10:55:25;;;;;;;3.58;1.70;;;22.30;99.90;;;;;;4994746;28;19940;-89
2021/07/09 10:58:06;;;;;;;2.85;1.50;;;22.30;99.90;;;;;;4993905;28;20034;-89
2021/07/09 11:00:41;;;;;;;5.38;1.50;;;22.60;99.90;;;;;;5012571;28;20642;-89
2021/07/09 11:03:09;;;;;;;1.80;1.30;;;22.70;99.90;;;;;;5013409;28;20041;-89
2021/07/09 11:06:02;;;;;;;3.92;1.30;;;22.90;99.90;;;;;;5013535;28;20107;-89
2021/07/09 11:08:30;;;;;;;3.13;1.60;;;22.90;99.90;;;;;;5015112;28;20065;-89
2021/07/09 11:11:17;;;;;;;3.42;1.40;;;23.10;99.90;;;;;;4993157;28;20121;-89
2021/07/09 11:13:45;;;;;;;3.50;1.40;;;23.30;99.90;;;;;;5009432;28;20033;-89
2021/07/09 11:16:32;;;;;;;1.92;1.27;;;23.60;99.90;;;;;;5013900;28;20026;-89
2021/07/09 11:19:08;;;;;;;1.48;1.02;;;23.80;99.90;;;;;;5014996;28;20511;-89
2021/07/09 11:21:33;;;;;;;2.35;1.20;;;24.00;99.90;;;;;;5014584;28;20024;-90
2021/07/09 11:24:05;;;;;;;1.95;1.10;;;24.00;99.90;;;;;;4996485;28;20137;-90
2021/07/09 11:26:35;;;;;;;3.75;1.40;;;24.10;99.90;;;;;;5018406;28;20017;-89
2021/07/09 11:29:16;;;;;;;2.45;1.30;;;24.00;99.90;;;;;;4997609;28;20025;-89
2021/07/09 11:31:42;;;;;;;3.90;1.23;;;23.90;99.90;;;;;;5014123;28;20113;-90
2021/07/09 11:34:10;;;;;;;2.72;1.67;;;23.70;99.90;;;;;;4999840;28;20149;-89
2021/07/09 11:37:00;;;;;;;3.08;1.25;;;23.80;99.90;;;;;;4986195;28;20468;-90
2021/07/09 11:39:34;;;;;;;3.08;1.35;;;23.80;99.90;;;;;;5007586;28;20029;-89
2021/07/09 11:42:14;;;;;;;1.70;1.02;;;23.70;99.90;;;;;;5001255;28;20526;-89
2021/07/09 11:44:45;;;;;;;1.85;1.23;;;23.50;99.90;;;;;;5013971;28;20041;-90
2021/07/09 11:47:23;;;;;;;1.58;1.25;;;23.50;99.90;;;;;;4999575;28;20031;-90
2021/07/09 11:50:06;;;;;;;3.20;1.70;;;23.40;99.90;;;;;;5013965;28;20034;-89
2021/07/09 11:52:38;;;;;;;5.28;1.60;;;23.10;99.90;;;;;;4996087;28;20045;-90
2021/07/09 11:55:06;;;;;;;3.33;1.55;;;22.60;99.90;;;;;;5016964;28;20028;-90
2021/07/09 11:57:40;;;;;;;3.28;1.77;;;23.00;99.90;;;;;;5013609;28;20022;-90
2021/07/09 12:00:13;;;;;;;4.18;1.90;;;23.30;99.90;;;;;;5010012;28;20474;-89
2021/07/09 12:02:41;;;;;;;3.47;2.17;;;23.20;99.90;;;;;;5016325;28;20486;-89
2021/07/09 12:05:11;;;;;;;2.72;1.65;;;23.20;99.90;;;;;;5030186;28;20029;-90
2021/07/09 12:07:46;;;;;;;2.97;1.80;;;23.30;99.90;;;;;;5026659;28;20022;-89
2021/07/09 12:10:21;;;;;;;3.75;1.65;;;23.30;99.90;;;;;;5013885;28;20037;-90
2021/07/09 12:12:54;;;;;;;1.73;1.42;;;23.60;99.90;;;;;;4997011;28;20035;-90
2021/07/09 12:15:30;;;;;;;4.45;1.75;;;24.00;99.90;;;;;;4994373;28;20030;-90
2021/07/09 12:18:04;;;;;;;3.10;1.50;;;24.40;99.90;;;;;;5013651;28;20038;-90
2021/07/09 12:20:39;;;;;;;3.80;1.70;;;24.80;99.90;;;;;;5000590;28;20037;-90
2021/07/09 12:23:15;;;;;;;3.60;1.65;;;25.20;99.90;;;;;;5003245;28;20111;-90
2021/07/09 12:25:57;;;;;;;2.75;1.92;;;25.20;99.90;;;;;;5014886;28;20013;-89
2021/07/09 12:28:24;;;;;;;4.35;1.70;;;24.90;99.10;;;;;;5030824;28;20364;-90
2021/07/09 12:30:53;;;;;;;3.05;1.50;;;24.30;99.90;;;;;;5012911;28;20037;-90
2021/07/09 12:33:29;;;;;;;3.53;1.65;;;24.30;99.90;;;;;;5004638;28;20124;-90
2021/07/09 12:36:08;;;;;;;3.17;1.50;;;24.00;99.90;;;;;;5016634;28;20065;-90
2021/07/09 12:38:43;;;;;;;2.22;1.60;;;24.00;99.90;;;;;;5007490;28;20030;-90
2021/07/09 12:41:14;;;;;;;3.35;1.30;;;23.70;99.90;;;;;;5007201;28;20253;-90
2021/07/09 12:43:45;;;;;;;3.17;1.80;;;23.60;99.90;;;;;;5013423;28;20037;-90
2021/07/09 12:46:18;;;;;;;3.58;1.80;;;23.50;99.90;;;;;;5017667;28;20010;-90
2021/07/09 12:48:57;;;;;;;2.33;1.53;;;23.60;99.90;;;;;;5012463;28;20140;-90
2021/07/09 12:51:30;;;;;;;4.25;3.00;;;23.70;99.90;;;;;;5011280;28;20026;-90